Time;durP1;ratioP1;P1;durP2;ratioP2;P2;SDS_P1;SDS_P2;PMS_P1;PMS_P2;Temp;Humidity;BMP_temperature;BMP_pressure;BME280_temperature;BME280_humidity;BME280_pressure;Samples;Min_cycle;Max_cycle;Signal;HPM_P1;HPM_P2
2022/08/17 00:00:59;;;;;;;;;;;;;;;27.67;39.20;98996.19;5034160;28;19909;-78
2022/08/17 00:03:50;;;;;;;;;;;;;;;27.64;39.06;98999.50;5034028;28;19913;-78
2022/08/17 00:06:20;;;;;;;;;;;;;;;27.63;39.00;99006.03;5029578;28;19991;-78
2022/08/17 00:08:48;;;;;;;;;;;;;;;27.64;39.16;98999.50;5033916;28;19913;-78
2022/08/17 00:11:39;;;;;;;;;;;;;;;27.66;39.18;98997.28;5033523;28;19916;-78
2022/08/17 00:14:10;;;;;;;;;;;;;;;27.65;39.04;99006.53;5030762;28;19912;-78
2022/08/17 00:16:38;;;;;;;;;;;;;;;27.64;38.98;99003.03;5033774;28;19916;-78
2022/08/17 00:19:05;;;;;;;;;;;;;;;27.61;39.17;99003.63;5033819;28;19909;-78
2022/08/17 00:21:31;;;;;;;;;;;;;;;27.59;39.40;99003.09;5033887;28;19909;-78
2022/08/17 00:23:56;;;;;;;;;;;;;;;27.54;39.39;98998.59;5033671;28;20355;-78
2022/08/17 00:26:22;;;;;;;;;;;;;;;27.50;39.35;98988.66;5032490;28;19968;-78
2022/08/17 00:28:48;;;;;;;;;;;;;;;27.47;39.42;98989.22;5033705;28;19932;-78
2022/08/17 00:31:14;;;;;;;;;;;;;;;27.50;39.56;98977.81;5033688;28;19909;-78
2022/08/17 00:33:42;;;;;;;;;;;;;;;27.52;39.10;98981.81;5032293;28;19909;-78
2022/08/17 00:36:08;;;;;;;;;;;;;;;27.51;39.04;98982.91;5033642;28;20425;-78
2022/08/17 00:38:34;;;;;;;;;;;;;;;27.52;39.23;98978.28;5033471;28;19909;-78
2022/08/17 00:41:07;;;;;;;;;;;;;;;27.52;39.05;98979.09;5031971;28;19920;-78
2022/08/17 00:43:39;;;;;;;;;;;;;;;27.51;39.45;98973.97;5033457;28;19943;-78
2022/08/17 00:46:09;;;;;;;;;;;;;;;27.48;39.45;98972.66;5032125;28;20377;-78
2022/08/17 00:48:35;;;;;;;;;;;;;;;27.43;39.85;98980.88;5033306;28;19952;-78
2022/08/17 00:51:20;;;;;;;;;;;;;;;27.42;39.59;98973.84;5033308;28;19931;-78
2022/08/17 00:53:56;;;;;;;;;;;;;;;27.38;39.59;98978.28;5022873;28;19916;-78
2022/08/17 00:56:26;;;;;;;;;;;;;;;27.37;39.55;98979.38;5033379;28;19908;-78
2022/08/17 00:58:53;;;;;;;;;;;;;;;27.35;39.51;98972.66;5033042;28;19909;-78
2022/08/17 01:01:18;;;;;;;;;;;;;;;27.28;39.51;98981.19;5033311;28;19909;-78
2022/08/17 01:03:44;;;;;;;;;;;;;;;27.21;39.75;98981.59;5032924;28;19913;-78
2022/08/17 01:06:09;;;;;;;;;;;;;;;27.13;39.88;98970.66;5031733;28;19913;-78
2022/08/17 01:08:37;;;;;;;;;;;;;;;27.08;40.20;98968.03;5032685;28;19916;-78
2022/08/17 01:11:04;;;;;;;;;;;;;;;27.02;39.90;98966.53;5031416;28;19909;-78
2022/08/17 01:13:31;;;;;;;;;;;;;;;27.03;39.90;98971.66;5032738;28;19940;-78
2022/08/17 01:16:00;;;;;;;;;;;;;;;26.99;40.20;98961.72;5032749;28;19916;-78
2022/08/17 01:18:26;;;;;;;;;;;;;;;26.95;40.12;98956.06;5031266;28;19925;-78
2022/08/17 01:20:53;;;;;;;;;;;;;;;26.95;40.23;98961.47;5032542;28;19913;-78
2022/08/17 01:23:19;;;;;;;;;;;;;;;26.92;40.95;98952.03;5030399;28;19913;-78
2022/08/17 01:25:46;;;;;;;;;;;;;;;26.84;40.83;98951.94;5032569;28;19913;-78
2022/08/17 01:28:11;;;;;;;;;;;;;;;26.77;40.49;98952.31;5032498;28;19944;-78
2022/08/17 01:30:37;;;;;;;;;;;;;;;26.63;41.39;98954.19;5032574;28;19967;-78
2022/08/17 01:33:03;;;;;;;;;;;;;;;26.57;41.02;98956.16;5032460;28;19912;-78
2022/08/17 01:35:28;;;;;;;;;;;;;;;26.59;41.54;98950.47;5030906;28;20385;-78
2022/08/17 01:37:53;;;;;;;;;;;;;;;26.58;41.54;98955.06;5032388;28;19916;-78
2022/08/17 01:40:32;;;;;;;;;;;;;;;26.60;40.79;98943.94;5030988;28;19916;-78
2022/08/17 01:43:06;;;;;;;;;;;;;;;26.62;40.87;98941.75;5032192;28;20011;-76
2022/08/17 01:45:32;;;;;;;;;;;;;;;26.65;40.81;98953.88;5030974;28;19936;-76
2022/08/17 01:47:58;;;;;;;;;;;;;;;26.66;40.65;98947.34;5032217;28;19956;-76
2022/08/17 01:50:29;;;;;;;;;;;;;;;26.64;40.95;98950.38;5032227;28;19940;-76
2022/08/17 01:52:57;;;;;;;;;;;;;;;26.62;41.10;98949.06;5032138;28;19909;-78
2022/08/17 01:55:27;;;;;;;;;;;;;;;26.57;41.02;98942.63;5030798;28;19909;-78
2022/08/17 01:57:52;;;;;;;;;;;;;;;26.57;40.60;98950.75;5032063;28;19909;-78
2022/08/17 02:00:18;;;;;;;;;;;;;;;26.58;41.39;98957.78;5032026;28;20012;-78
2022/08/17 02:02:44;;;;;;;;;;;;;;;26.55;40.85;98958.38;5031939;28;19920;-78
2022/08/17 02:05:09;;;;;;;;;;;;;;;26.54;40.98;98959.47;5032037;28;19909;-78
2022/08/17 02:07:35;;;;;;;;;;;;;;;26.55;41.28;98961.06;5031932;28;19992;-78
2022/08/17 02:10:01;;;;;;;;;;;;;;;26.56;40.99;98954.56;5032023;28;20308;-78
2022/08/17 02:12:26;;;;;;;;;;;;;;;26.58;40.89;98960.47;5031997;28;19924;-78
2022/08/17 02:14:51;;;;;;;;;;;;;;;26.58;41.33;98963.19;5031834;28;20400;-78
2022/08/17 02:17:17;;;;;;;;;;;;;;;26.56;40.94;98967.28;5030292;28;19927;-78
2022/08/17 02:19:42;;;;;;;;;;;;;;;26.56;40.62;98964.59;5030541;28;19916;-78
2022/08/17 02:22:08;;;;;;;;;;;;;;;26.50;40.88;98969.28;5031719;28;19945;-78
2022/08/17 02:24:34;;;;;;;;;;;;;;;26.46;41.16;98970.97;5032024;28;19913;-78
2022/08/17 02:27:00;;;;;;;;;;;;;;;26.43;41.05;98970.78;5030465;28;19963;-78
2022/08/17 02:29:25;;;;;;;;;;;;;;;26.38;41.14;98968.16;5031657;28;19909;-78
2022/08/17 02:31:50;;;;;;;;;;;;;;;26.34;40.92;98953.59;5030454;28;19909;-78
2022/08/17 02:34:16;;;;;;;;;;;;;;;26.30;41.41;98961.47;5033613;28;19909;-78
2022/08/17 02:36:41;;;;;;;;;;;;;;;26.28;41.79;98961.75;5034483;28;19916;-78
2022/08/17 02:39:08;;;;;;;;;;;;;;;26.28;41.63;98958.25;5034298;28;19913;-78
2022/08/17 02:41:34;;;;;;;;;;;;;;;26.29;41.31;98954.44;5035548;28;19917;-78
2022/08/17 02:43:59;;;;;;;;;;;;;;;26.29;41.30;98955.25;5035421;28;19913;-78
2022/08/17 02:46:25;;;;;;;;;;;;;;;26.32;41.23;98955.75;5035701;28;19970;-78
2022/08/17 02:48:50;;;;;;;;;;;;;;;26.35;41.47;98957.91;5035407;28;20337;-78
2022/08/17 02:51:15;;;;;;;;;;;;;;;26.36;41.04;98954.09;5035274;28;20002;-78
2022/08/17 02:53:41;;;;;;;;;;;;;;;26.35;41.70;98958.72;5035249;28;19909;-78
2022/08/17 02:56:06;;;;;;;;;;;;;;;26.29;41.45;98957.16;5035363;28;19905;-78
2022/08/17 02:58:31;;;;;;;;;;;;;;;26.28;41.71;98960.97;5035390;28;19967;-78
2022/08/17 03:00:57;;;;;;;;;;;;;;;26.27;41.52;98960.16;5035384;28;20364;-78
2022/08/17 03:03:22;;;;;;;;;;;;;;;26.27;41.68;98957.44;5035059;28;19953;-78
2022/08/17 03:05:50;;;;;;;;;;;;;;;26.27;41.97;98951.22;5035088;28;19909;-78
2022/08/17 03:08:15;;;;;;;;;;;;;;;26.25;41.70;98959.66;5033842;28;19999;-78
2022/08/17 03:10:41;;;;;;;;;;;;;;;26.25;41.82;98964.25;5035107;28;20420;-78
2022/08/17 03:13:07;;;;;;;;;;;;;;;26.24;42.13;98962.66;5035234;28;19909;-78
2022/08/17 03:15:33;;;;;;;;;;;;;;;26.26;41.74;98965.88;5033585;28;20008;-78
2022/08/17 03:17:58;;;;;;;;;;;;;;;26.22;41.85;98968.34;5034683;28;20456;-78
2022/08/17 03:20:25;;;;;;;;;;;;;;;26.20;41.49;98967.03;5033615;28;19939;-78
2022/08/17 03:22:51;;;;;;;;;;;;;;;26.14;41.46;98971.72;5034711;28;19913;-78
2022/08/17 03:25:18;;;;;;;;;;;;;;;26.09;42.00;98971.81;5033461;28;19992;-78
2022/08/17 03:27:43;;;;;;;;;;;;;;;26.05;41.89;98978.09;5034630;28;19909;-78
2022/08/17 03:30:09;;;;;;;;;;;;;;;26.05;42.29;98976.19;5034654;28;20297;-78
2022/08/17 03:32:38;;;;;;;;;;;;;;;26.02;42.06;98976.78;5034587;28;19967;-78
2022/08/17 03:35:04;;;;;;;;;;;;;;;26.00;42.33;98980.84;5034389;28;19901;-78
2022/08/17 03:37:29;;;;;;;;;;;;;;;26.03;41.90;98969.47;5034333;28;19935;-78
2022/08/17 03:39:54;;;;;;;;;;;;;;;26.03;42.05;98985.72;5034443;28;19905;-78
2022/08/17 03:42:21;;;;;;;;;;;;;;;26.03;41.83;98988.41;5033199;28;19909;-78
2022/08/17 03:44:51;;;;;;;;;;;;;;;26.00;42.63;98980.84;5033855;28;19913;-78
2022/08/17 03:58:12;;;;;;;;;;;;;;;25.80;42.56;98990.06;5034514;28;19977;-78
2022/08/17 04:00:41;;;;;;;;;;;;;;;25.82;42.25;98993.28;5034160;28;20433;-78
2022/08/17 04:03:06;;;;;;;;;;;;;;;25.83;42.98;98994.88;5034078;28;19913;-78
2022/08/17 04:05:31;;;;;;;;;;;;;;;25.84;42.81;98994.59;5033992;28;19909;-78
2022/08/17 04:07:57;;;;;;;;;;;;;;;25.85;42.72;98998.09;5032730;28;20456;-78
2022/08/17 04:10:22;;;;;;;;;;;;;;;25.86;42.41;98988.88;5033969;28;19913;-78
2022/08/17 04:12:53;;;;;;;;;;;;;;;25.86;42.61;98988.88;5032591;28;19948;-78
2022/08/17 04:15:19;;;;;;;;;;;;;;;25.89;42.47;98994.53;5033764;28;19913;-78
2022/08/17 04:17:44;;;;;;;;;;;;;;;25.95;42.03;98993.34;5032271;28;19924;-78
2022/08/17 04:20:14;;;;;;;;;;;;;;;25.97;43.01;98995.75;5033652;28;19916;-78
2022/08/17 04:22:54;;;;;;;;;;;;;;;26.00;42.70;99007.91;5033769;28;19909;-78
2022/08/17 04:25:19;;;;;;;;;;;;;;;26.04;42.55;99008.97;5033627;28;19932;-78
2022/08/17 04:27:44;;;;;;;;;;;;;;;26.07;42.38;99008.38;5033692;28;19909;-78
2022/08/17 04:30:10;;;;;;;;;;;;;;;26.07;42.39;99020.00;5032266;28;19995;-78
2022/08/17 04:32:55;;;;;;;;;;;;;;;26.07;42.81;99016.50;5033614;28;19909;-78
2022/08/17 04:35:22;;;;;;;;;;;;;;;26.08;42.99;99018.09;5031534;28;19952;-78
2022/08/17 04:37:48;;;;;;;;;;;;;;;26.09;42.71;99017.81;5032140;28;19944;-78
2022/08/17 04:43:01;;;;;;;;;;;;;;;26.18;42.76;99020.66;5033296;28;19920;-78
2022/08/17 04:45:26;;;;;;;;;;;;;;;26.18;42.51;99018.75;5033379;28;19916;-78
2022/08/17 04:47:52;;;;;;;;;;;;;;;26.17;42.39;99019.03;5033337;28;19905;-78
2022/08/17 04:50:17;;;;;;;;;;;;;;;26.18;42.57;99026.06;5033170;28;19917;-78
2022/08/17 04:52:45;;;;;;;;;;;;;;;26.20;42.74;99027.38;5033152;28;20298;-78
2022/08/17 04:55:10;;;;;;;;;;;;;;;26.25;42.92;99023.78;5033143;28;20417;-78
2022/08/17 04:57:35;;;;;;;;;;;;;;;26.27;42.50;99022.41;5032981;28;20003;-78
2022/08/17 05:00:01;;;;;;;;;;;;;;;26.28;42.64;99023.22;5033082;28;19916;-78
2022/08/17 05:02:27;;;;;;;;;;;;;;;26.33;42.32;99022.34;5033019;28;19948;-78
2022/08/17 05:04:52;;;;;;;;;;;;;;;26.37;42.40;99023.38;5032750;28;19916;-78
2022/08/17 05:07:17;;;;;;;;;;;;;;;26.41;42.50;99025.19;5032791;28;19909;-78
2022/08/17 05:09:42;;;;;;;;;;;;;;;26.46;42.50;99029.72;5032815;28;19915;-78
2022/08/17 05:12:08;;;;;;;;;;;;;;;26.50;42.48;99023.44;5032930;28;19909;-78
2022/08/17 05:14:34;;;;;;;;;;;;;;;26.52;42.52;99023.94;5032768;28;19909;-78
2022/08/17 05:16:59;;;;;;;;;;;;;;;26.56;42.18;99024.16;5032507;28;19951;-78
2022/08/17 05:19:24;;;;;;;;;;;;;;;26.64;42.25;99030.81;5032676;28;20378;-78
2022/08/17 05:21:50;;;;;;;;;;;;;;;26.77;42.23;99030.06;5032617;28;19913;-78
2022/08/17 05:24:16;;;;;;;;;;;;;;;26.90;41.69;99035.53;5032570;28;19940;-78
2022/08/17 05:26:41;;;;;;;;;;;;;;;27.00;41.57;99037.28;5032562;28;19909;-79
2022/08/17 05:29:06;;;;;;;;;;;;;;;27.11;41.65;99036.00;5032434;28;20401;-78
2022/08/17 05:31:31;;;;;;;;;;;;;;;27.25;41.72;99044.13;5031144;28;19909;-78
2022/08/17 05:33:57;;;;;;;;;;;;;;;27.32;41.83;99049.16;5032255;28;19909;-78
2022/08/17 05:36:23;;;;;;;;;;;;;;;27.40;41.42;99054.69;5024883;28;19974;-78
2022/08/17 05:38:49;;;;;;;;;;;;;;;27.45;40.96;99049.19;5025973;28;19927;-78
2022/08/17 05:41:14;;;;;;;;;;;;;;;27.46;40.68;99052.69;5027888;28;20404;-78
2022/08/17 05:43:40;;;;;;;;;;;;;;;27.47;40.72;99038.81;5031786;28;19913;-78
2022/08/17 05:46:12;;;;;;;;;;;;;;;27.50;40.62;99051.00;5032177;28;19948;-78
2022/08/17 05:48:42;;;;;;;;;;;;;;;27.51;40.62;99049.91;5034488;28;19913;-78
2022/08/17 05:51:25;;;;;;;;;;;;;;;27.50;40.53;99053.72;5030791;28;19909;-78
2022/08/17 05:53:57;;;;;;;;;;;;;;;27.51;40.99;99055.34;5030582;28;19916;-78
2022/08/17 05:56:40;;;;;;;;;;;;;;;27.48;40.92;99051.28;5020057;28;19953;-78
2022/08/17 05:59:11;;;;;;;;;;;;;;;27.52;41.21;99051.50;5012240;28;19920;-78
2022/08/17 06:01:57;;;;;;;;;;;;;;;27.53;40.71;99048.50;5010921;28;19912;-78
2022/08/17 06:04:30;;;;;;;;;;;;;;;27.52;41.08;99046.09;5002990;28;19913;-78
2022/08/17 06:07:15;;;;;;;;;;;;;;;27.53;40.82;99048.50;5031547;28;20388;-78
2022/08/17 06:10:03;;;;;;;;;;;;;;;27.59;41.12;99054.63;5030058;28;19920;-78
2022/08/17 06:12:36;;;;;;;;;;;;;;;27.67;41.09;99056.66;5021566;28;19913;-78
2022/08/17 06:15:01;;;;;;;;;;;;;;;27.71;40.86;99054.94;5024554;28;19916;-78
2022/08/17 06:17:27;;;;;;;;;;;;;;;27.70;40.65;99058.78;5051287;28;20416;-78
2022/08/17 06:19:54;;;;;;;;;;;;;;;27.76;40.23;99067.59;5051629;28;20424;-78
2022/08/17 06:22:22;;;;;;;;;;;;;;;27.80;40.54;99063.19;5049792;28;19967;-78
2022/08/17 06:24:52;;;;;;;;;;;;;;;27.87;40.37;99063.56;5038538;28;19924;-78
2022/08/17 06:27:20;;;;;;;;;;;;;;;27.93;40.42;99067.00;5031662;28;19962;-78
2022/08/17 06:29:51;;;;;;;;;;;;;;;28.00;40.29;99064.66;5024461;28;20004;-78
2022/08/17 06:32:17;;;;;;;;;;;;;;;28.03;40.29;99067.56;5045688;28;19999;-78
2022/08/17 06:34:43;;;;;;;;;;;;;;;28.04;40.33;99065.66;5051252;28;20077;-78
2022/08/17 06:37:31;;;;;;;;;;;;;;;28.04;40.21;99068.38;5051233;28;20425;-78
2022/08/17 06:40:05;;;;;;;;;;;;;;;28.11;39.87;99063.34;5051203;28;20321;-78
2022/08/17 06:42:46;;;;;;;;;;;;;;;28.17;39.62;99067.53;5041890;28;19913;-78
2022/08/17 06:45:26;;;;;;;;;;;;;;;28.18;39.69;99061.00;5049701;28;19924;-78
2022/08/17 06:47:54;;;;;;;;;;;;;;;28.15;39.79;99065.13;5018217;28;19910;-78
2022/08/17 06:50:25;;;;;;;;;;;;;;;28.11;39.99;99064.13;5014600;28;19936;-78
2022/08/17 06:53:09;;;;;;;;;;;;;;;28.13;39.80;99067.34;5011513;28;19996;-78
2022/08/17 06:55:42;;;;;;;;;;;;;;;28.09;39.94;99060.94;5018002;28;19920;-78
2022/08/17 06:58:08;;;;;;;;;;;;;;;28.13;39.92;99069.25;5027564;28;19913;-78
2022/08/17 07:00:40;;;;;;;;;;;;;;;28.18;39.97;99058.28;5031161;28;19909;-78
2022/08/17 07:03:09;;;;;;;;;;;;;;;28.27;39.34;99053.81;5029292;28;19917;-78
2022/08/17 07:05:45;;;;;;;;;;;;;;;28.31;39.13;99060.22;5021731;28;20377;-78
2022/08/17 07:08:13;;;;;;;;;;;;;;;28.41;39.14;99059.19;5051150;28;19915;-78
2022/08/17 07:10:44;;;;;;;;;;;;;;;28.48;38.95;99063.09;5036925;28;19913;-78
2022/08/17 07:13:29;;;;;;;;;;;;;;;28.57;38.81;99065.88;5027915;28;20325;-79
2022/08/17 07:16:15;;;;;;;;;;;;;;;28.68;38.57;99058.28;5020997;28;19913;-78
2022/08/17 07:18:40;;;;;;;;;;;;;;;28.74;38.27;99060.56;5027694;28;19964;-78
2022/08/17 07:21:11;;;;;;;;;;;;;;;28.87;38.24;99068.97;5028393;28;20483;-78
2022/08/17 07:23:44;;;;;;;;;;;;;;;28.89;38.23;99058.59;5031676;28;19916;-78
2022/08/17 07:26:12;;;;;;;;;;;;;;;28.92;38.49;99060.69;5028610;28;19916;-78
2022/08/17 07:28:37;;;;;;;;;;;;;;;28.96;38.32;99061.69;5034228;28;20003;-78
2022/08/17 07:31:03;;;;;;;;;;;;;;;29.04;38.19;99063.69;5032057;28;20492;-78
2022/08/17 07:33:30;;;;;;;;;;;;;;;29.08;38.45;99057.31;5027056;28;20480;-78
2022/08/17 07:35:56;;;;;;;;;;;;;;;29.17;38.31;99051.09;5023782;28;19960;-78
2022/08/17 07:38:27;;;;;;;;;;;;;;;29.24;37.79;99052.25;5030651;28;19948;-78
2022/08/17 07:41:01;;;;;;;;;;;;;;;29.28;37.82;99053.25;5033540;28;19913;-78
2022/08/17 07:43:27;;;;;;;;;;;;;;;29.35;37.48;99061.75;5028877;28;19931;-78
2022/08/17 07:48:45;;;;;;;;;;;;;;;29.55;37.01;99044.09;5024281;28;19986;-78
2022/08/17 07:51:19;;;;;;;;;;;;;;;29.65;36.66;99053.88;5030623;28;19919;-78
2022/08/17 07:53:44;;;;;;;;;;;;;;;29.75;36.20;99045.47;5033200;28;19966;-78
2022/08/17 07:56:12;;;;;;;;;;;;;;;29.86;36.09;99035.06;5036345;28;20373;-78
2022/08/17 07:58:37;;;;;;;;;;;;;;;29.97;35.91;99041.81;5031684;28;20007;-78
2022/08/17 08:01:10;;;;;;;;;;;;;;;30.09;36.26;99038.50;5030267;28;19995;-78
2022/08/17 08:03:40;;;;;;;;;;;;;;;30.14;34.31;99041.88;5025498;28;20508;-78
2022/08/17 08:06:17;;;;;;;;;;;;;;;30.25;34.86;99043.16;5033288;28;20353;-78
2022/08/17 08:08:49;;;;;;;;;;;;;;;30.36;34.22;99038.19;5032698;28;19909;-79
2022/08/17 08:11:27;;;;;;;;;;;;;;;30.46;33.98;99031.63;5032671;28;20079;-79
2022/08/17 08:13:52;;;;;;;;;;;;;;;30.55;34.16;99027.78;5033342;28;19992;-78
2022/08/17 08:16:26;;;;;;;;;;;;;;;30.67;34.44;99027.97;5024165;28;20372;-78
2022/08/17 08:18:56;;;;;;;;;;;;;;;30.84;33.14;99032.56;5028596;28;19917;-78
2022/08/17 08:21:24;;;;;;;;;;;;;;;30.97;32.07;99026.13;5027168;28;20621;-79
2022/08/17 08:24:10;;;;;;;;;;;;;;;31.06;31.79;99030.75;5033367;28;20007;-78
2022/08/17 08:27:03;;;;;;;;;;;;;;;31.15;31.92;99018.72;5059084;28;19983;-78
2022/08/17 08:29:46;;;;;;;;;;;;;;;31.31;33.17;99019.00;5013462;28;19913;-78
2022/08/17 08:32:27;;;;;;;;;;;;;;;31.42;31.45;99017.50;5026968;28;19976;-78
2022/08/17 08:35:01;;;;;;;;;;;;;;;31.56;31.73;99020.00;5030753;28;19966;-78
2022/08/17 08:37:45;;;;;;;;;;;;;;;31.66;32.17;99016.09;5031878;28;19909;-78
2022/08/17 08:40:29;;;;;;;;;;;;;;;31.74;32.22;99013.34;5032562;28;19920;-79
2022/08/17 08:42:58;;;;;;;;;;;;;;;31.82;31.79;99017.16;5030969;28;19920;-79
2022/08/17 08:45:27;;;;;;;;;;;;;;;31.92;31.81;99014.81;5024627;28;20306;-79
2022/08/17 08:47:52;;;;;;;;;;;;;;;32.03;31.01;99007.06;5026100;28;19917;-78
2022/08/17 08:50:23;;;;;;;;;;;;;;;32.04;31.21;99011.41;5032554;28;20370;-78
2022/08/17 08:53:00;;;;;;;;;;;;;;;32.16;30.92;99011.47;5044992;28;20381;-79
2022/08/17 08:55:25;;;;;;;;;;;;;;;32.34;31.14;99003.94;5012777;28;19948;-79
2022/08/17 08:57:56;;;;;;;;;;;;;;;32.49;30.77;99014.25;5017761;28;19909;-79
2022/08/17 09:00:23;;;;;;;;;;;;;;;32.63;31.00;99015.91;5026577;28;19976;-79
2022/08/17 09:03:03;;;;;;;;;;;;;;;32.76;31.35;99015.63;5031898;28;19913;-78
2022/08/17 09:05:47;;;;;;;;;;;;;;;32.90;30.19;99009.88;5049233;28;20063;-79
2022/08/17 09:08:18;;;;;;;;;;;;;;;33.06;30.02;99001.81;5030423;28;19966;-78
2022/08/17 09:10:43;;;;;;;;;;;;;;;33.28;29.02;99006.84;5030291;28;20313;-78
2022/08/17 09:13:09;;;;;;;;;;;;;;;33.45;29.33;99005.88;5058964;28;19909;-78
2022/08/17 09:15:43;;;;;;;;;;;;;;;33.69;29.50;99011.31;5028675;28;20488;-78
2022/08/17 09:18:15;;;;;;;;;;;;;;;33.92;28.09;99008.91;5011281;28;19917;-78
2022/08/17 09:20:41;;;;;;;;;;;;;;;34.04;27.12;99008.09;5015142;28;19913;-78
2022/08/17 09:23:18;;;;;;;;;;;;;;;34.17;27.88;99009.66;5012440;28;19928;-78
2022/08/17 09:26:08;;;;;;;;;;;;;;;34.28;27.20;99005.28;5012671;28;19915;-78
2022/08/17 09:28:35;;;;;;;;;;;;;;;34.46;26.93;99002.28;5027746;28;19909;-78
2022/08/17 09:31:15;;;;;;;;;;;;;;;34.64;26.48;99000.81;5026123;28;19986;-78
2022/08/17 09:33:46;;;;;;;;;;;;;;;34.82;25.85;98993.06;5050364;28;20004;-78
2022/08/17 09:36:15;;;;;;;;;;;;;;;34.89;27.56;99001.50;5033615;28;19913;-78
2022/08/17 09:39:12;;;;;;;;;;;;;;;34.95;24.63;98992.69;5024065;28;20006;-78
2022/08/17 09:41:40;;;;;;;;;;;;;;;35.10;26.92;99004.03;4981847;28;19920;-78
2022/08/17 09:44:15;;;;;;;;;;;;;;;35.15;26.46;98990.84;5026332;28;19920;-78
2022/08/17 09:46:46;;;;;;;;;;;;;;;35.27;26.59;98989.94;5034057;28;19921;-78
2022/08/17 09:49:18;;;;;;;;;;;;;;;35.39;26.76;98987.13;5038170;28;19920;-78
2022/08/17 09:51:47;;;;;;;;;;;;;;;35.53;25.05;98979.22;5035107;28;19917;-78
2022/08/17 09:54:32;;;;;;;;;;;;;;;35.71;26.26;98981.59;5029145;28;19963;-78
2022/08/17 09:57:17;;;;;;;;;;;;;;;35.82;25.59;98979.91;5030818;28;20037;-78
2022/08/17 09:59:51;;;;;;;;;;;;;;;36.04;25.30;98983.91;5030425;28;20397;-78
2022/08/17 10:02:24;;;;;;;;;;;;;;;36.16;23.38;98978.25;5038033;28;19923;-78
2022/08/17 10:04:57;;;;;;;;;;;;;;;36.19;25.34;98974.78;5044355;28;20468;-78
2022/08/17 10:07:38;;;;;;;;;;;;;;;36.20;24.22;98977.16;5030714;28;20422;-78
2022/08/17 10:10:14;;;;;;;;;;;;;;;36.41;22.73;98971.31;5030870;28;20348;-78
2022/08/17 10:12:48;;;;;;;;;;;;;;;36.59;21.67;98977.97;5031585;28;19944;-78
2022/08/17 10:15:17;;;;;;;;;;;;;;;36.75;22.78;98966.88;5031524;28;19974;-78
2022/08/17 10:17:55;;;;;;;;;;;;;;;36.99;22.92;98967.69;5028361;28;20590;-78
2022/08/17 10:20:40;;;;;;;;;;;;;;;37.11;23.66;98973.00;5025018;28;20302;-78
2022/08/17 10:26:14;;;;;;;;;;;;;;;37.53;22.11;98976.47;5031267;28;19999;-78
2022/08/17 10:28:51;;;;;;;;;;;;;;;37.65;22.36;98974.66;5025366;28;19919;-79
2022/08/17 10:31:24;;;;;;;;;;;;;;;37.73;18.77;98971.66;5025945;28;19935;-78
2022/08/17 10:33:49;;;;;;;;;;;;;;;37.79;20.42;98967.41;5025666;28;20000;-78
2022/08/17 10:36:22;;;;;;;;;;;;;;;37.91;18.85;98954.59;5028406;28;19950;-78
2022/08/17 10:39:10;;;;;;;;;;;;;;;37.97;20.54;98951.13;5030832;28;19901;-78
2022/08/17 10:41:40;;;;;;;;;;;;;;;37.98;20.94;98952.72;5059831;28;19952;-78
2022/08/17 10:44:24;;;;;;;;;;;;;;;37.99;20.31;98959.00;5029514;28;19921;-78
2022/08/17 10:47:00;;;;;;;;;;;;;;;38.07;21.21;98961.47;5011208;28;20054;-78
2022/08/17 10:49:28;;;;;;;;;;;;;;;38.16;19.64;98947.44;5012666;28;20580;-78
2022/08/17 10:51:57;;;;;;;;;;;;;;;38.04;20.48;98950.41;5030616;28;19912;-78
2022/08/17 10:54:22;;;;;;;;;;;;;;;38.26;19.63;98945.97;5031839;28;19909;-78
2022/08/17 10:56:49;;;;;;;;;;;;;;;38.45;19.65;98943.00;5036024;28;19947;-78
2022/08/17 10:59:33;;;;;;;;;;;;;;;38.40;21.00;98941.41;5053147;28;19908;-78
2022/08/17 11:02:16;;;;;;;;;;;;;;;38.59;20.58;98934.09;5040819;28;19913;-78
2022/08/17 11:04:48;;;;;;;;;;;;;;;38.74;18.42;98930.34;5029261;28;19917;-78
2022/08/17 11:07:32;;;;;;;;;;;;;;;38.85;20.60;98939.50;5035799;28;20453;-78
2022/08/17 11:10:03;;;;;;;;;;;;;;;38.94;19.44;98937.22;5033422;28;20293;-78
2022/08/17 11:12:47;;;;;;;;;;;;;;;38.99;18.91;98942.38;5033018;28;19920;-78
2022/08/17 11:15:13;;;;;;;;;;;;;;;39.30;19.08;98943.03;5031082;28;19917;-78
2022/08/17 11:17:50;;;;;;;;;;;;;;;39.51;18.96;98934.13;5034956;28;20004;-78
2022/08/17 11:20:19;;;;;;;;;;;;;;;39.58;17.37;98931.41;5028637;28;19921;-78
2022/08/17 11:22:56;;;;;;;;;;;;;;;39.63;17.66;98926.31;5046750;28;19908;-78
2022/08/17 11:25:37;;;;;;;;;;;;;;;39.67;17.88;98926.31;5043494;28;19964;-78
2022/08/17 11:28:26;;;;;;;;;;;;;;;39.76;17.77;98917.66;5050167;28;19912;-78
2022/08/17 11:30:56;;;;;;;;;;;;;;;39.54;17.97;98925.06;5021210;28;19909;-78
2022/08/17 11:33:43;;;;;;;;;;;;;;;39.36;18.61;98924.91;5023349;28;19913;-78
2022/08/17 11:36:11;;;;;;;;;;;;;;;39.55;18.39;98919.16;5018829;28;19919;-78
2022/08/17 11:38:48;;;;;;;;;;;;;;;39.74;18.40;98920.81;5053796;28;19978;-78
2022/08/17 11:41:14;;;;;;;;;;;;;;;39.91;17.59;98906.28;5050895;28;19915;-78
2022/08/17 11:43:48;;;;;;;;;;;;;;;39.87;16.46;98899.94;5033398;28;20385;-78
2022/08/17 11:46:20;;;;;;;;;;;;;;;39.80;17.77;98904.66;5034080;28;19916;-78
2022/08/17 11:51:54;;;;;;;;;;;;;;;39.75;18.01;98914.13;5034186;28;19966;-79
2022/08/17 11:54:40;;;;;;;;;;;;;;;39.77;16.64;98902.66;5031868;28;19936;-78
2022/08/17 11:57:24;;;;;;;;;;;;;;;39.75;17.86;98908.59;5031813;28;19909;-78
2022/08/17 11:59:55;;;;;;;;;;;;;;;39.86;16.15;98897.56;5033239;28;20002;-78
2022/08/17 12:02:33;;;;;;;;;;;;;;;40.06;16.13;98893.31;5032814;28;20358;-78
2022/08/17 12:05:17;;;;;;;;;;;;;;;39.81;17.29;98895.19;5033797;28;19936;-78
2022/08/17 12:07:48;;;;;;;;;;;;;;;39.62;15.28;98894.31;5037975;28;19916;-78
2022/08/17 12:10:16;;;;;;;;;;;;;;;39.70;16.30;98890.41;5032066;28;19920;-78
2022/08/17 12:12:44;;;;;;;;;;;;;;;39.85;16.93;98893.22;5013877;28;19970;-78
2022/08/17 12:15:18;;;;;;;;;;;;;;;39.79;14.92;98895.56;5031120;28;19917;-78
2022/08/17 12:17:54;;;;;;;;;;;;;;;39.83;15.95;98879.78;5033441;28;19945;-78
2022/08/17 12:20:20;;;;;;;;;;;;;;;40.08;17.63;98887.41;5034300;28;19985;-78
2022/08/17 12:23:03;;;;;;;;;;;;;;;40.19;17.31;98880.72;5037861;28;20474;-78
2022/08/17 12:25:45;;;;;;;;;;;;;;;40.14;16.26;98891.38;5032103;28;20405;-78
2022/08/17 12:28:23;;;;;;;;;;;;;;;40.18;17.21;98884.69;5034836;28;19938;-78
2022/08/17 12:30:49;;;;;;;;;;;;;;;40.20;16.31;98890.63;5032834;28;19913;-78
2022/08/17 12:33:14;;;;;;;;;;;;;;;40.34;15.17;98878.78;5033623;28;20022;-78
2022/08/17 12:35:40;;;;;;;;;;;;;;;40.41;15.97;98884.34;5032940;28;19920;-78
2022/08/17 12:38:09;;;;;;;;;;;;;;;40.43;15.69;98879.22;5032102;28;20314;-78
2022/08/17 12:40:34;;;;;;;;;;;;;;;40.50;15.91;98870.13;5028824;28;20006;-78
2022/08/17 12:43:00;;;;;;;;;;;;;;;40.45;14.02;98874.06;5034452;28;19975;-78
2022/08/17 12:45:32;;;;;;;;;;;;;;;40.46;17.50;98861.03;5030144;28;19916;-78
2022/08/17 12:48:01;;;;;;;;;;;;;;;40.42;15.66;98854.72;5029338;28;19921;-78
2022/08/17 12:50:27;;;;;;;;;;;;;;;40.54;14.89;98855.09;5033422;28;20385;-78
2022/08/17 12:52:54;;;;;;;;;;;;;;;40.63;17.05;98854.72;5032802;28;19913;-78
2022/08/17 12:55:20;;;;;;;;;;;;;;;40.74;15.77;98857.47;5032186;28;19912;-78
2022/08/17 12:57:50;;;;;;;;;;;;;;;40.80;15.76;98851.16;5062273;28;19917;-78
2022/08/17 13:00:19;;;;;;;;;;;;;;;40.70;17.44;98851.94;5020347;28;20321;-78
2022/08/17 13:02:50;;;;;;;;;;;;;;;40.63;15.92;98844.44;5042290;28;19947;-78
2022/08/17 13:05:29;;;;;;;;;;;;;;;40.63;15.26;98847.19;5032791;28;19921;-78
2022/08/17 13:07:55;;;;;;;;;;;;;;;40.58;15.62;98841.28;5023678;28;19913;-78
2022/08/17 13:10:23;;;;;;;;;;;;;;;40.67;15.29;98844.44;5018893;28;20389;-78
2022/08/17 13:12:49;;;;;;;;;;;;;;;40.78;16.27;98849.94;5020421;28;19913;-78
2022/08/17 13:15:28;;;;;;;;;;;;;;;40.71;16.61;98847.19;5019358;28;20011;-78
2022/08/17 13:17:56;;;;;;;;;;;;;;;40.75;16.11;98854.31;5032190;28;19917;-78
2022/08/17 13:20:21;;;;;;;;;;;;;;;40.80;16.37;98856.72;5030500;28;19912;-78
2022/08/17 13:22:56;;;;;;;;;;;;;;;40.85;16.21;98869.34;5030770;28;20317;-78
2022/08/17 13:25:22;;;;;;;;;;;;;;;40.78;15.69;98861.03;5032348;28;19931;-78
2022/08/17 13:27:49;;;;;;;;;;;;;;;40.74;16.40;98851.94;5030957;28;19909;-78